createdAt,value
2019-01-27T00:01:25.417Z,4.70
2019-01-27T00:03:55.402Z,4.80
2019-01-27T00:06:25.235Z,4.80
2019-01-27T00:08:55.330Z,4.90
2019-01-27T00:11:25.345Z,4.80
2019-01-27T00:13:57.876Z,4.70
2019-01-27T00:16:27.817Z,4.70
2019-01-27T00:18:58.016Z,4.70
2019-01-27T00:21:27.955Z,4.80
2019-01-27T00:23:57.920Z,4.80
2019-01-27T00:26:27.755Z,4.80
2019-01-27T00:28:57.800Z,4.80
2019-01-27T00:31:27.593Z,4.80
2019-01-27T00:33:57.509Z,4.70
2019-01-27T00:36:27.348Z,4.70
2019-01-27T00:38:57.263Z,4.70
2019-01-27T00:41:27.054Z,4.60
2019-01-27T00:43:57.057Z,4.70
2019-01-27T00:46:27.012Z,4.70
2019-01-27T00:48:56.968Z,4.70
2019-01-27T00:51:26.990Z,4.80
2019-01-27T00:53:56.872Z,4.80
2019-01-27T00:56:26.714Z,4.80
2019-01-27T00:58:56.618Z,4.80
2019-01-27T01:01:26.652Z,4.80
2019-01-27T01:03:56.535Z,4.70
2019-01-27T01:06:26.516Z,4.70
2019-01-27T01:08:56.418Z,4.80
2019-01-27T01:11:26.271Z,4.80
2019-01-27T01:13:56.243Z,4.80
2019-01-27T01:16:26.182Z,4.80
2019-01-27T01:18:56.050Z,4.80
2019-01-27T01:21:26.037Z,4.80
2019-01-27T01:23:56.049Z,4.80
2019-01-27T01:26:25.971Z,4.30
2019-01-27T01:28:55.900Z,4.70
2019-01-27T01:31:25.855Z,4.50
2019-01-27T01:33:55.815Z,4.40
2019-01-27T01:36:25.754Z,4.60
2019-01-27T01:38:55.728Z,4.70
2019-01-27T01:41:25.857Z,4.80
2019-01-27T01:43:55.697Z,4.60
2019-01-27T01:46:25.632Z,4.80
2019-01-27T01:48:55.477Z,4.90
2019-01-27T01:51:25.428Z,4.90
2019-01-27T01:53:55.359Z,4.90
2019-01-27T01:56:25.229Z,4.90
2019-01-27T01:58:55.125Z,5.00
2019-01-27T02:01:25.119Z,5.00
2019-01-27T02:03:55.001Z,5.00
2019-01-27T02:06:24.935Z,5.00
2019-01-27T02:08:54.919Z,4.90
2019-01-27T02:11:24.987Z,4.80
2019-01-27T02:13:54.853Z,4.50
2019-01-27T02:16:24.868Z,4.60
2019-01-27T02:18:54.890Z,4.80
2019-01-27T02:21:24.815Z,4.90
2019-01-27T02:23:54.787Z,4.60
2019-01-27T02:26:24.720Z,4.80
2019-01-27T02:28:54.587Z,4.90
2019-01-27T02:31:24.581Z,4.80
2019-01-27T02:33:54.429Z,4.60
2019-01-27T02:36:24.292Z,4.80
2019-01-27T02:38:54.148Z,4.60
2019-01-27T02:41:24.017Z,4.80
2019-01-27T02:43:53.963Z,4.90
2019-01-27T02:46:23.959Z,4.90
2019-01-27T02:48:53.857Z,5.00
2019-01-27T02:51:23.760Z,5.00
2019-01-27T02:53:53.706Z,5.00
2019-01-27T02:56:23.580Z,5.00
2019-01-27T02:58:53.464Z,5.00
2019-01-27T03:01:23.433Z,4.80
2019-01-27T03:03:53.380Z,5.00
2019-01-27T03:06:42.398Z,5.00
2019-01-27T03:09:17.448Z,4.90
2019-01-27T03:11:51.355Z,5.00
2019-01-27T03:14:21.853Z,5.10
2019-01-27T03:16:53.232Z,5.00
2019-01-27T03:19:23.169Z,5.10
2019-01-27T03:21:53.027Z,5.00
2019-01-27T03:24:23.043Z,4.90
2019-01-27T03:26:52.945Z,5.10
2019-01-27T03:29:22.837Z,4.90
2019-01-27T03:31:52.783Z,4.90
2019-01-27T03:34:22.646Z,5.20
2019-01-27T03:36:52.621Z,5.20
2019-01-27T03:39:22.609Z,5.20
2019-01-27T03:41:52.553Z,5.20
2019-01-27T03:44:22.400Z,5.20
2019-01-27T03:46:52.259Z,5.10
2019-01-27T03:49:22.100Z,5.20
2019-01-27T03:51:52.038Z,5.20
2019-01-27T03:54:21.973Z,5.20
2019-01-27T03:56:51.807Z,5.20
2019-01-27T03:59:21.672Z,5.20
2019-01-27T04:01:51.567Z,5.10
2019-01-27T04:04:21.494Z,5.20
2019-01-27T04:06:51.342Z,5.20
2019-01-27T04:09:21.469Z,5.10
2019-01-27T04:11:51.353Z,5.10
2019-01-27T04:14:21.489Z,5.10
2019-01-27T04:16:51.340Z,5.10
2019-01-27T04:19:21.324Z,5.10
2019-01-27T04:21:51.481Z,5.10
2019-01-27T04:24:21.450Z,5.10
2019-01-27T04:26:51.280Z,5.10
2019-01-27T04:29:21.160Z,5.10
2019-01-27T04:31:51.079Z,5.10
2019-01-27T04:34:20.937Z,5.10
2019-01-27T04:36:50.925Z,5.10
2019-01-27T04:39:20.803Z,5.10
2019-01-27T04:41:50.717Z,5.10
2019-01-27T04:44:20.604Z,5.10
2019-01-27T04:46:50.529Z,5.10
2019-01-27T04:49:20.500Z,5.10
2019-01-27T04:51:50.399Z,5.00
2019-01-27T04:54:20.323Z,5.10
2019-01-27T04:56:50.296Z,5.20
2019-01-27T04:59:20.262Z,5.20
2019-01-27T05:01:50.149Z,5.00
2019-01-27T05:04:32.991Z,5.10
2019-01-27T05:07:02.940Z,5.00
2019-01-27T05:09:32.863Z,5.00
2019-01-27T05:12:02.784Z,5.00
2019-01-27T05:14:32.666Z,5.10
2019-01-27T05:17:02.537Z,5.00
2019-01-27T05:19:32.430Z,5.00
2019-01-27T05:22:02.286Z,4.90
2019-01-27T05:24:32.331Z,4.90
2019-01-27T05:27:02.176Z,4.90
2019-01-27T05:29:32.029Z,4.90
2019-01-27T05:32:01.923Z,4.70
2019-01-27T05:34:31.867Z,4.90
2019-01-27T05:37:01.768Z,4.90
2019-01-27T05:39:31.743Z,4.90
2019-01-27T05:42:01.669Z,5.00
2019-01-27T05:44:31.673Z,5.00
2019-01-27T05:47:01.644Z,5.00
2019-01-27T05:49:31.584Z,5.00
2019-01-27T05:52:01.481Z,5.00
2019-01-27T05:54:31.590Z,4.90
2019-01-27T05:57:01.627Z,5.00
2019-01-27T05:59:33.281Z,4.70
2019-01-27T06:02:03.261Z,4.80
2019-01-27T06:04:33.268Z,5.00
2019-01-27T06:07:03.200Z,5.20
2019-01-27T06:09:33.133Z,5.00
2019-01-27T06:12:03.040Z,5.10
2019-01-27T06:14:32.915Z,5.10
2019-01-27T06:17:02.780Z,5.10
2019-01-27T06:19:32.689Z,5.10
2019-01-27T06:22:02.514Z,5.10
2019-01-27T06:24:32.475Z,5.10
2019-01-27T06:27:02.316Z,5.10
2019-01-27T06:29:32.380Z,5.10
2019-01-27T06:32:02.227Z,5.10
2019-01-27T06:34:32.161Z,5.00
2019-01-27T06:37:02.068Z,5.10
2019-01-27T06:39:32.123Z,5.10
2019-01-27T06:42:02.124Z,5.10
2019-01-27T06:44:32.070Z,5.10
2019-01-27T06:47:02.000Z,5.10
2019-01-27T06:49:32.003Z,5.00
2019-01-27T06:52:01.931Z,5.10
2019-01-27T06:54:31.809Z,5.10
2019-01-27T06:57:01.704Z,5.10
2019-01-27T06:59:50.592Z,4.90
2019-01-27T07:02:29.691Z,5.10
2019-01-27T07:05:12.354Z,5.20
2019-01-27T07:08:00.785Z,5.20
2019-01-27T07:10:48.551Z,5.10
2019-01-27T07:13:36.110Z,5.00
2019-01-27T07:16:17.408Z,4.80
2019-01-27T07:19:07.391Z,5.10
2019-01-27T07:21:54.004Z,4.80
2019-01-27T07:24:33.127Z,5.00
2019-01-27T07:27:28.289Z,4.90
2019-01-27T07:30:24.699Z,4.80
2019-01-27T07:33:11.933Z,5.20
2019-01-27T07:36:04.975Z,5.10
2019-01-27T07:38:41.727Z,5.10
2019-01-27T07:41:36.781Z,5.20
2019-01-27T07:44:12.558Z,5.10
2019-01-27T07:46:49.599Z,5.00
2019-01-27T07:49:41.515Z,5.00
2019-01-27T07:52:29.270Z,5.00
2019-01-27T07:55:09.984Z,5.10
2019-01-27T07:58:07.963Z,5.10
2019-01-27T08:00:48.958Z,5.20
2019-01-27T08:03:36.559Z,4.90
2019-01-27T08:06:14.906Z,5.00
2019-01-27T08:09:02.832Z,5.10
2019-01-27T08:11:50.482Z,5.10
2019-01-27T08:14:29.772Z,5.00
2019-01-27T08:17:28.026Z,5.20
2019-01-27T08:20:16.981Z,5.10
2019-01-27T08:22:57.137Z,5.00
2019-01-27T08:25:46.025Z,5.10
2019-01-27T08:28:34.021Z,5.30
2019-01-27T08:31:22.927Z,5.20
2019-01-27T08:34:10.475Z,5.20
2019-01-27T08:36:59.441Z,5.30
2019-01-27T08:39:41.027Z,5.10
2019-01-27T08:42:28.695Z,5.40
2019-01-27T08:45:10.055Z,5.20
2019-01-27T08:47:40.103Z,5.40
2019-01-27T08:50:13.708Z,5.30
2019-01-27T08:52:43.603Z,5.20
2019-01-27T08:55:14.460Z,5.30
2019-01-27T08:57:44.327Z,5.30
2019-01-27T09:00:38.296Z,5.40
2019-01-27T09:03:30.483Z,5.30
2019-01-27T09:06:17.985Z,5.00
2019-01-27T09:09:01.720Z,5.20
2019-01-27T09:12:16.429Z,5.30
2019-01-27T09:15:05.321Z,5.30
2019-01-27T09:17:56.843Z,5.40
2019-01-27T09:20:38.755Z,5.40
2019-01-27T09:23:19.429Z,5.10
2019-01-27T09:25:55.491Z,5.20
2019-01-27T09:28:50.666Z,5.50
2019-01-27T09:31:32.464Z,5.40
2019-01-27T09:34:14.324Z,5.30
2019-01-27T09:37:12.339Z,5.50
2019-01-27T09:40:19.368Z,5.60
2019-01-27T09:43:10.864Z,5.70
2019-01-27T09:46:14.979Z,5.70
2019-01-27T09:48:53.029Z,5.70
2019-01-27T09:51:47.674Z,5.60
2019-01-27T09:54:27.436Z,5.70
2019-01-27T09:57:31.481Z,5.80
2019-01-27T10:00:08.820Z,5.60
2019-01-27T10:03:09.796Z,5.80
2019-01-27T10:05:58.856Z,5.90
2019-01-27T10:08:39.923Z,5.90
2019-01-27T10:11:26.498Z,6.00
2019-01-27T10:16:51.459Z,5.60
2019-01-27T10:22:39.425Z,6.30
2019-01-27T10:25:29.237Z,6.30
2019-01-27T10:28:24.399Z,6.30
2019-01-27T10:31:07.208Z,6.00
2019-01-27T10:34:03.456Z,6.10
2019-01-27T10:36:58.682Z,6.40
2019-01-27T10:39:53.591Z,6.40
2019-01-27T10:42:40.977Z,6.60
2019-01-27T10:45:17.253Z,6.60
2019-01-27T10:48:12.535Z,6.60
2019-01-27T10:51:00.473Z,6.70
2019-01-27T10:53:48.204Z,6.70
2019-01-27T10:56:26.042Z,6.50
2019-01-27T10:59:14.972Z,6.50
2019-01-27T11:02:02.559Z,6.70
2019-01-27T11:04:54.659Z,6.70
2019-01-27T11:07:42.445Z,6.70
2019-01-27T11:10:32.709Z,6.70
2019-01-27T11:13:30.972Z,6.70
2019-01-27T11:16:17.503Z,6.80
2019-01-27T11:19:12.511Z,6.90
2019-01-27T11:21:50.991Z,6.60
2019-01-27T11:24:42.685Z,6.80
2019-01-27T11:27:33.184Z,7.00
2019-01-27T11:30:10.120Z,6.70
2019-01-27T11:32:58.981Z,6.80
2019-01-27T11:35:49.794Z,6.80
2019-01-27T11:38:37.866Z,6.90
2019-01-27T11:41:29.534Z,7.10
2019-01-27T11:44:18.417Z,7.20
2019-01-27T11:47:16.281Z,7.20
2019-01-27T11:50:05.212Z,7.20
2019-01-27T11:52:41.348Z,7.20
2019-01-27T11:55:11.248Z,7.40
2019-01-27T11:57:41.084Z,7.40
2019-01-27T12:00:14.397Z,7.30
2019-01-27T12:02:46.737Z,7.30
2019-01-27T12:05:15.831Z,7.10
2019-01-27T12:07:46.031Z,7.20
2019-01-27T12:10:16.281Z,7.20
2019-01-27T12:15:18.117Z,7.30
2019-01-27T12:17:48.110Z,7.20
2019-01-27T12:20:18.071Z,7.20
2019-01-27T12:22:47.923Z,7.30
2019-01-27T12:25:17.911Z,7.30
2019-01-27T12:27:47.758Z,7.30
2019-01-27T12:30:18.732Z,7.00
2019-01-27T12:32:48.576Z,7.00
2019-01-27T12:35:18.504Z,7.00
2019-01-27T12:37:48.420Z,7.00
2019-01-27T12:40:20.536Z,7.00
2019-01-27T12:42:50.474Z,7.00
2019-01-27T12:45:20.448Z,6.80
2019-01-27T12:47:50.369Z,7.00
2019-01-27T12:50:20.358Z,7.10
2019-01-27T12:52:51.184Z,7.10
2019-01-27T12:55:21.187Z,7.10
2019-01-27T12:57:51.782Z,7.30
2019-01-27T13:00:28.153Z,7.40
2019-01-27T13:02:58.025Z,7.30
2019-01-27T13:05:28.040Z,7.30
2019-01-27T13:07:57.992Z,7.30
2019-01-27T13:10:27.931Z,7.40
2019-01-27T13:12:58.082Z,7.40
2019-01-27T13:15:28.243Z,7.50
2019-01-27T13:17:58.168Z,7.50
2019-01-27T13:20:28.309Z,7.50
2019-01-27T13:22:58.210Z,7.30
2019-01-27T13:25:29.269Z,7.40
2019-01-27T13:27:59.551Z,7.60
2019-01-27T13:30:30.046Z,7.60
2019-01-27T13:33:03.271Z,7.50
2019-01-27T13:35:31.869Z,7.50
2019-01-27T13:38:01.822Z,7.40
2019-01-27T13:40:31.790Z,7.30
2019-01-27T13:43:01.655Z,7.40
2019-01-27T13:45:31.660Z,7.40
2019-01-27T13:48:01.671Z,7.10
2019-01-27T13:50:32.912Z,7.30
2019-01-27T13:53:02.764Z,7.20
2019-01-27T13:55:32.842Z,7.20
2019-01-27T13:58:02.910Z,7.20
2019-01-27T14:00:36.321Z,7.30
2019-01-27T14:03:06.660Z,7.10
2019-01-27T14:05:36.605Z,7.10
2019-01-27T14:08:06.815Z,6.90
2019-01-27T14:10:36.799Z,7.00
2019-01-27T14:13:06.709Z,7.00
2019-01-27T14:15:36.920Z,6.90
2019-01-27T14:18:06.838Z,6.70
2019-01-27T14:20:36.755Z,6.60
2019-01-27T14:23:06.620Z,6.70
2019-01-27T14:25:36.468Z,6.70
2019-01-27T14:28:06.343Z,6.60
2019-01-27T14:30:38.824Z,6.50
2019-01-27T14:33:08.671Z,6.40
2019-01-27T14:35:38.531Z,6.50
2019-01-27T14:38:08.606Z,6.50
2019-01-27T14:40:38.535Z,6.50
2019-01-27T14:43:08.424Z,6.40
2019-01-27T14:45:38.340Z,6.50
2019-01-27T14:48:08.645Z,6.40
2019-01-27T14:50:42.028Z,6.40
2019-01-27T14:53:12.185Z,6.30
2019-01-27T14:55:42.112Z,6.30
2019-01-27T14:58:12.092Z,6.40
2019-01-27T15:00:43.121Z,6.40
2019-01-27T15:03:14.461Z,6.10
2019-01-27T15:05:44.339Z,6.30
2019-01-27T15:08:14.821Z,6.30
2019-01-27T15:10:45.837Z,6.20
2019-01-27T15:13:15.872Z,5.90
2019-01-27T15:15:45.813Z,6.10
2019-01-27T15:18:15.687Z,6.20
2019-01-27T15:23:16.571Z,6.30
2019-01-27T15:30:48.423Z,6.10
2019-01-27T15:33:18.465Z,6.20
2019-01-27T15:35:48.300Z,6.10
2019-01-27T15:38:18.156Z,5.90
2019-01-27T15:40:48.023Z,6.20
2019-01-27T15:43:17.884Z,6.10
2019-01-27T15:45:48.028Z,6.00
2019-01-27T15:48:18.072Z,6.10
2019-01-27T15:50:48.029Z,5.90
2019-01-27T15:53:17.898Z,6.20
2019-01-27T15:55:47.797Z,6.20
2019-01-27T15:58:17.707Z,6.10
2019-01-27T16:00:47.664Z,6.10
2019-01-27T16:03:17.514Z,6.00
2019-01-27T16:05:47.371Z,5.80
2019-01-27T16:08:17.299Z,5.70
2019-01-27T16:10:47.214Z,6.00
2019-01-27T16:13:17.055Z,6.00
2019-01-27T16:15:46.907Z,5.90
2019-01-27T16:18:17.450Z,5.70
2019-01-27T16:20:47.392Z,5.90
2019-01-27T16:23:34.936Z,5.90
2019-01-27T16:26:05.006Z,5.90
2019-01-27T16:28:34.796Z,5.90
2019-01-27T16:31:29.003Z,6.00
2019-01-27T16:34:03.297Z,6.10
2019-01-27T16:36:33.374Z,6.10
2019-01-27T16:39:03.416Z,6.10
2019-01-27T16:41:33.346Z,6.10
2019-01-27T16:44:03.275Z,6.00
2019-01-27T16:46:33.274Z,6.10
2019-01-27T16:49:03.081Z,6.10
2019-01-27T16:51:32.953Z,6.10
2019-01-27T16:54:02.817Z,6.00
2019-01-27T16:56:34.380Z,5.80
2019-01-27T16:59:04.471Z,5.70
2019-01-27T17:01:34.350Z,5.90
2019-01-27T17:04:04.333Z,6.10
2019-01-27T17:06:34.206Z,6.20
2019-01-27T17:09:06.926Z,6.10
2019-01-27T17:11:38.105Z,6.00
2019-01-27T17:14:07.944Z,6.20
2019-01-27T17:16:37.819Z,6.20
2019-01-27T17:19:07.674Z,6.20
2019-01-27T17:21:37.726Z,6.10
2019-01-27T17:24:07.553Z,6.10
2019-01-27T17:26:37.412Z,6.10
2019-01-27T17:29:07.812Z,6.10
2019-01-27T17:31:44.555Z,6.20
2019-01-27T17:34:09.138Z,6.20
2019-01-27T17:36:39.085Z,6.20
2019-01-27T17:39:10.445Z,6.20
2019-01-27T17:41:40.303Z,6.00
2019-01-27T17:44:10.220Z,5.90
2019-01-27T17:46:40.168Z,6.20
2019-01-27T17:49:10.023Z,6.30
2019-01-27T17:51:39.987Z,6.10
2019-01-27T17:54:10.298Z,6.20
2019-01-27T17:56:40.496Z,6.20
2019-01-27T17:59:32.411Z,6.20
2019-01-27T18:02:39.702Z,6.20
2019-01-27T18:05:26.877Z,6.30
2019-01-27T18:08:07.241Z,6.20
2019-01-27T18:10:42.620Z,6.20
2019-01-27T18:13:20.119Z,6.20
2019-01-27T18:15:50.105Z,6.10
2019-01-27T18:18:20.038Z,6.20
2019-01-27T18:20:49.984Z,6.20
2019-01-27T18:23:19.935Z,6.20
2019-01-27T18:25:49.888Z,6.30
2019-01-27T18:28:19.749Z,6.30
2019-01-27T18:30:49.709Z,6.20
2019-01-27T18:33:19.791Z,6.30
2019-01-27T18:35:49.781Z,6.30
2019-01-27T18:38:19.629Z,6.30
2019-01-27T18:40:50.343Z,6.20
2019-01-27T18:43:20.454Z,6.20
2019-01-27T18:45:50.318Z,6.20
2019-01-27T18:48:20.296Z,6.20
2019-01-27T18:50:50.340Z,6.10
2019-01-27T18:53:39.230Z,6.30
2019-01-27T18:56:19.698Z,6.40
2019-01-27T18:58:56.837Z,6.20
2019-01-27T19:01:58.063Z,6.10
2019-01-27T19:05:00.562Z,6.00
2019-01-27T19:07:44.568Z,5.80
2019-01-27T19:10:26.552Z,6.00
2019-01-27T19:13:15.500Z,6.20
2019-01-27T19:16:05.734Z,6.30
2019-01-27T19:18:54.726Z,6.50
2019-01-27T19:21:46.454Z,6.50
2019-01-27T19:24:38.340Z,6.30
2019-01-27T19:27:20.058Z,6.00
2019-01-27T19:30:00.036Z,6.00
2019-01-27T19:32:52.509Z,6.00
2019-01-27T19:35:41.463Z,6.10
2019-01-27T19:41:30.954Z,5.90
2019-01-27T19:44:07.345Z,5.70
2019-01-27T19:46:54.417Z,5.70
2019-01-27T19:49:33.573Z,5.70
2019-01-27T19:52:23.360Z,5.80
2019-01-27T19:55:21.327Z,6.00
2019-01-27T19:58:10.303Z,6.20
2019-01-27T20:01:02.239Z,6.30
2019-01-27T20:03:57.308Z,6.30
2019-01-27T20:06:35.607Z,6.10
2019-01-27T20:09:27.499Z,6.10
2019-01-27T20:12:20.733Z,6.10
2019-01-27T20:14:59.647Z,6.10
2019-01-27T20:17:51.359Z,6.00
2019-01-27T20:20:45.882Z,5.90
2019-01-27T20:23:33.515Z,5.80
2019-01-27T20:26:37.832Z,5.60
2019-01-27T20:29:13.809Z,5.60
2019-01-27T20:32:02.605Z,5.60
2019-01-27T20:34:56.815Z,5.40
2019-01-27T20:37:56.924Z,5.40
2019-01-27T20:41:03.932Z,5.60
2019-01-27T20:44:01.907Z,5.60
2019-01-27T20:46:51.050Z,5.70
2019-01-27T20:49:52.374Z,5.70
2019-01-27T20:52:53.734Z,5.60
2019-01-27T20:55:45.710Z,5.70
2019-01-27T20:58:31.796Z,5.60
2019-01-27T21:01:26.976Z,5.60
2019-01-27T21:04:22.581Z,5.60
2019-01-27T21:07:11.659Z,5.60
2019-01-27T21:09:48.782Z,5.60
2019-01-27T21:12:45.522Z,5.60
2019-01-27T21:15:37.146Z,5.60
2019-01-27T21:18:24.749Z,5.60
2019-01-27T21:20:54.624Z,5.70
2019-01-27T21:23:24.567Z,5.70
2019-01-27T21:25:54.478Z,5.60
2019-01-27T21:28:24.410Z,5.60
2019-01-27T21:30:54.364Z,5.60
2019-01-27T21:33:24.573Z,5.60
2019-01-27T21:35:54.470Z,5.80
2019-01-27T21:38:25.727Z,5.60
2019-01-27T21:40:55.668Z,5.60
2019-01-27T21:43:25.626Z,5.70
2019-01-27T21:45:57.023Z,5.70
2019-01-27T21:48:26.890Z,5.40
2019-01-27T21:50:56.925Z,5.30
2019-01-27T21:53:26.765Z,5.30
2019-01-27T21:55:58.620Z,5.20
2019-01-27T21:58:28.535Z,5.20
2019-01-27T22:00:58.413Z,5.10
2019-01-27T22:03:28.335Z,4.90
2019-01-27T22:05:58.225Z,5.00
2019-01-27T22:08:28.093Z,4.90
2019-01-27T22:10:57.976Z,5.10
2019-01-27T22:13:27.898Z,5.20
2019-01-27T22:15:57.910Z,5.20
2019-01-27T22:18:27.754Z,5.20
2019-01-27T22:20:57.705Z,5.10
2019-01-27T22:23:27.620Z,5.10
2019-01-27T22:25:57.556Z,5.10
2019-01-27T22:28:27.484Z,5.00
2019-01-27T22:30:57.398Z,5.00
2019-01-27T22:33:27.356Z,5.10
2019-01-27T22:35:57.417Z,5.20
2019-01-27T22:38:27.288Z,5.20
2019-01-27T22:40:57.816Z,5.10
2019-01-27T22:43:29.378Z,4.90
2019-01-27T22:46:06.199Z,4.80
2019-01-27T22:48:36.228Z,4.80
2019-01-27T22:51:06.084Z,5.30
2019-01-27T22:53:35.912Z,5.30
2019-01-27T22:56:05.792Z,5.40
2019-01-27T22:58:35.723Z,5.60
2019-01-27T23:01:13.090Z,5.40
2019-01-27T23:03:45.102Z,5.30
2019-01-27T23:06:14.976Z,5.30
2019-01-27T23:08:44.983Z,5.30
2019-01-27T23:11:15.008Z,5.40
2019-01-27T23:13:44.842Z,5.20
2019-01-27T23:16:14.684Z,5.10
2019-01-27T23:18:46.596Z,5.00
2019-01-27T23:21:16.533Z,4.90
2019-01-27T23:23:46.416Z,5.00
2019-01-27T23:26:16.682Z,5.10
2019-01-27T23:28:46.584Z,5.10
2019-01-27T23:31:16.554Z,5.20
2019-01-27T23:33:46.427Z,5.00
2019-01-27T23:36:16.268Z,4.80
2019-01-27T23:38:46.196Z,4.60
2019-01-27T23:41:16.040Z,4.90
2019-01-27T23:43:45.976Z,4.70
2019-01-27T23:46:15.807Z,4.20
2019-01-27T23:48:45.774Z,4.20
2019-01-27T23:51:15.720Z,4.60
2019-01-27T23:53:45.598Z,4.50
2019-01-27T23:58:45.758Z,4.60
